createdAt,value
2022-08-20T00:00:31.922Z,8.61
2022-08-20T00:01:29.382Z,8.71
2022-08-20T00:02:26.834Z,8.71
2022-08-20T00:03:29.680Z,8.53
2022-08-20T00:04:27.104Z,8.50
2022-08-20T00:05:27.408Z,8.55
2022-08-20T00:06:24.778Z,8.77
2022-08-20T00:07:22.116Z,8.53
2022-08-20T00:08:20.742Z,8.73
2022-08-20T00:09:18.075Z,8.87
2022-08-20T00:10:15.549Z,8.88
2022-08-20T00:11:15.769Z,8.97
2022-08-20T00:12:16.236Z,8.56
2022-08-20T00:13:18.136Z,8.53
2022-08-20T00:14:15.693Z,8.42
2022-08-20T00:15:14.308Z,7.96
2022-08-20T00:16:12.864Z,8.55
2022-08-20T00:17:10.269Z,8.88
2022-08-20T00:18:07.959Z,8.86
2022-08-20T00:19:07.267Z,9.01
2022-08-20T00:20:07.693Z,8.45
2022-08-20T00:21:08.554Z,8.51
2022-08-20T00:22:06.012Z,8.58
2022-08-20T00:23:08.466Z,8.56
2022-08-20T00:24:07.771Z,8.63
2022-08-20T00:25:06.962Z,8.71
2022-08-20T00:26:05.243Z,8.95
2022-08-20T00:27:02.696Z,8.42
2022-08-20T00:28:00.293Z,8.17
2022-08-20T00:28:57.699Z,8.66
2022-08-20T00:29:55.181Z,9.21
2022-08-20T00:30:52.627Z,8.75
2022-08-20T00:31:50.586Z,8.65
2022-08-20T00:32:50.122Z,8.73
2022-08-20T00:33:47.921Z,8.42
2022-08-20T00:34:45.321Z,8.55
2022-08-20T00:35:45.676Z,9.10
2022-08-20T00:36:43.206Z,8.89
2022-08-20T00:37:40.601Z,8.56
2022-08-20T00:38:42.011Z,8.59
2022-08-20T00:39:39.426Z,8.44
2022-08-20T00:40:39.817Z,8.66
2022-08-20T00:41:37.206Z,8.92
2022-08-20T00:42:44.846Z,8.43
2022-08-20T00:43:45.155Z,8.39
2022-08-20T00:44:46.685Z,8.58
2022-08-20T00:45:44.035Z,8.41
2022-08-20T00:46:42.274Z,8.73
2022-08-20T00:47:45.637Z,8.66
2022-08-20T00:48:51.587Z,8.74
2022-08-20T00:49:48.939Z,8.66
2022-08-20T00:50:46.384Z,8.79
2022-08-20T00:51:47.404Z,8.47
2022-08-20T00:52:49.875Z,8.67
2022-08-20T00:53:48.141Z,8.45
2022-08-20T00:54:50.242Z,8.62
2022-08-20T00:55:47.671Z,8.65
2022-08-20T00:56:47.546Z,8.97
2022-08-20T00:58:00.428Z,8.95
2022-08-20T00:58:59.940Z,8.81
2022-08-20T00:59:58.867Z,8.80
2022-08-20T01:00:57.065Z,8.66
2022-08-20T01:01:56.160Z,8.80
2022-08-20T01:02:54.409Z,8.97
2022-08-20T01:03:56.643Z,8.49
2022-08-20T01:04:55.746Z,8.72
2022-08-20T01:05:53.117Z,8.50
2022-08-20T01:06:51.014Z,8.57
2022-08-20T01:07:49.340Z,8.44
2022-08-20T01:08:49.117Z,8.63
2022-08-20T01:09:57.863Z,8.68
2022-08-20T01:11:10.429Z,9.25
2022-08-20T01:12:09.969Z,9.04
2022-08-20T01:13:10.938Z,8.86
2022-08-20T01:14:29.703Z,9.18
2022-08-20T01:15:31.022Z,9.26
2022-08-20T01:16:31.994Z,8.58
2022-08-20T01:17:32.920Z,8.92
2022-08-20T01:18:31.231Z,9.21
2022-08-20T01:19:35.351Z,7.93
2022-08-20T01:20:38.875Z,9.27
2022-08-20T01:21:37.245Z,8.70
2022-08-20T01:22:59.683Z,9.11
2022-08-20T01:24:03.975Z,8.51
2022-08-20T01:25:06.683Z,8.98
2022-08-20T01:26:09.705Z,8.92
2022-08-20T01:27:07.988Z,9.10
2022-08-20T01:28:05.687Z,9.07
2022-08-20T01:29:07.741Z,8.62
2022-08-20T01:30:06.988Z,8.81
2022-08-20T01:31:06.601Z,9.05
2022-08-20T01:32:04.510Z,8.81
2022-08-20T01:33:02.666Z,8.90
2022-08-20T01:34:01.631Z,8.87
2022-08-20T01:34:59.007Z,8.99
2022-08-20T01:35:58.093Z,8.63
2022-08-20T01:36:57.484Z,8.69
2022-08-20T01:37:55.150Z,8.98
2022-08-20T01:38:54.128Z,9.12
2022-08-20T01:39:52.323Z,9.26
2022-08-20T01:40:52.431Z,8.74
2022-08-20T01:42:00.469Z,8.88
2022-08-20T01:42:58.839Z,9.15
2022-08-20T01:43:58.273Z,8.87
2022-08-20T01:44:56.035Z,8.90
2022-08-20T01:45:53.539Z,8.36
2022-08-20T01:46:52.434Z,8.56
2022-08-20T01:47:49.900Z,8.68
2022-08-20T01:48:47.601Z,8.93
2022-08-20T01:49:48.775Z,8.60
2022-08-20T01:50:52.667Z,8.98
2022-08-20T01:51:51.160Z,8.69
2022-08-20T01:53:04.542Z,9.31
2022-08-20T01:54:01.911Z,8.65
2022-08-20T01:54:59.750Z,8.64
2022-08-20T01:55:57.151Z,8.99
2022-08-20T01:57:01.171Z,8.99
2022-08-20T01:58:00.243Z,8.68
2022-08-20T01:58:59.417Z,8.84
2022-08-20T01:59:56.782Z,8.57
2022-08-20T02:00:54.223Z,9.14
2022-08-20T02:01:52.538Z,8.92
2022-08-20T02:02:50.505Z,8.69
2022-08-20T02:03:47.936Z,8.78
2022-08-20T02:04:45.363Z,8.48
2022-08-20T02:05:42.747Z,8.98
2022-08-20T02:06:55.882Z,8.77
2022-08-20T02:07:55.508Z,8.56
2022-08-20T02:08:54.726Z,8.83
2022-08-20T02:09:52.990Z,8.75
2022-08-20T02:10:50.868Z,8.83
2022-08-20T02:11:49.417Z,8.57
2022-08-20T02:12:46.870Z,8.72
2022-08-20T02:13:44.285Z,9.14
2022-08-20T02:14:43.584Z,8.86
2022-08-20T02:15:43.118Z,9.39
2022-08-20T02:16:43.606Z,8.78
2022-08-20T02:17:51.992Z,8.41
2022-08-20T02:18:54.357Z,9.35
2022-08-20T02:19:57.896Z,9.00
2022-08-20T02:20:55.311Z,8.89
2022-08-20T02:21:56.022Z,9.26
2022-08-20T02:22:55.420Z,9.22
2022-08-20T02:23:52.883Z,9.27
2022-08-20T02:24:51.395Z,9.35
2022-08-20T02:25:49.043Z,9.52
2022-08-20T02:26:46.815Z,9.36
2022-08-20T02:27:46.040Z,9.01
2022-08-20T02:28:45.111Z,9.88
2022-08-20T02:29:42.631Z,9.48
2022-08-20T02:30:43.198Z,8.98
2022-08-20T02:32:23.508Z,9.10
2022-08-20T02:33:01.792Z,9.28
2022-08-20T02:34:14.761Z,9.61
2022-08-20T02:35:18.707Z,8.93
2022-08-20T02:36:18.714Z,9.21
2022-08-20T02:37:19.203Z,9.25
2022-08-20T02:38:16.640Z,9.47
2022-08-20T02:39:14.092Z,9.12
2022-08-20T02:40:14.283Z,9.41
2022-08-20T02:41:12.402Z,9.39
2022-08-20T02:42:09.908Z,8.84
2022-08-20T02:43:07.750Z,9.09
2022-08-20T02:44:05.852Z,9.46
2022-08-20T02:45:04.701Z,9.86
2022-08-20T02:46:02.525Z,9.67
2022-08-20T02:47:01.009Z,9.96
2022-08-20T02:47:59.413Z,9.10
2022-08-20T02:48:57.552Z,9.17
2022-08-20T02:49:55.372Z,9.72
2022-08-20T02:50:57.605Z,9.60
2022-08-20T02:51:55.245Z,9.53
2022-08-20T02:52:52.869Z,9.12
2022-08-20T02:53:50.921Z,9.53
2022-08-20T02:54:50.330Z,9.79
2022-08-20T02:55:47.817Z,9.57
2022-08-20T02:56:45.187Z,9.94
2022-08-20T02:57:43.016Z,9.74
2022-08-20T02:58:40.525Z,9.65
2022-08-20T02:59:38.893Z,9.82
2022-08-20T03:00:38.399Z,9.72
2022-08-20T03:01:36.515Z,9.51
2022-08-20T03:02:33.958Z,9.71
2022-08-20T03:03:31.400Z,9.61
2022-08-20T03:04:29.984Z,10.03
2022-08-20T03:05:27.608Z,9.70
2022-08-20T03:06:25.670Z,10.02
2022-08-20T03:07:23.128Z,10.10
2022-08-20T03:08:22.032Z,9.76
2022-08-20T03:09:19.399Z,9.57
2022-08-20T03:10:17.420Z,9.71
2022-08-20T03:11:14.857Z,9.78
2022-08-20T03:12:12.479Z,9.83
2022-08-20T03:13:13.508Z,9.71
2022-08-20T03:14:11.803Z,10.35
2022-08-20T03:15:17.683Z,10.48
2022-08-20T03:16:15.498Z,10.25
2022-08-20T03:17:13.141Z,10.67
2022-08-20T03:18:10.845Z,9.81
2022-08-20T03:19:08.612Z,9.70
2022-08-20T03:20:07.560Z,10.59
2022-08-20T03:21:06.477Z,10.63
2022-08-20T03:22:07.356Z,9.75
2022-08-20T03:23:04.737Z,9.92
2022-08-20T03:24:02.150Z,9.84
2022-08-20T03:24:59.898Z,9.78
2022-08-20T03:25:57.504Z,9.95
2022-08-20T03:26:54.845Z,10.08
2022-08-20T03:27:54.588Z,9.61
2022-08-20T03:28:52.288Z,10.05
2022-08-20T03:29:49.645Z,10.44
2022-08-20T03:30:47.033Z,10.19
2022-08-20T03:31:44.523Z,10.82
2022-08-20T03:32:41.955Z,10.18
2022-08-20T03:33:39.700Z,10.17
2022-08-20T03:34:50.581Z,10.47
2022-08-20T03:35:48.602Z,10.16
2022-08-20T03:36:45.929Z,9.33
2022-08-20T03:37:48.104Z,10.26
2022-08-20T03:38:45.904Z,10.13
2022-08-20T03:39:43.380Z,10.00
2022-08-20T03:40:41.326Z,11.01
2022-08-20T03:41:39.288Z,10.07
2022-08-20T03:42:37.163Z,9.43
2022-08-20T03:43:35.538Z,9.98
2022-08-20T03:44:33.322Z,9.92
2022-08-20T03:45:32.548Z,10.00
2022-08-20T03:46:29.981Z,10.03
2022-08-20T03:47:27.496Z,10.13
2022-08-20T03:48:25.385Z,9.91
2022-08-20T03:49:24.343Z,10.24
2022-08-20T03:50:24.446Z,9.68
2022-08-20T03:51:21.845Z,10.25
2022-08-20T03:52:19.535Z,10.19
2022-08-20T03:53:17.560Z,10.86
2022-08-20T03:54:14.942Z,10.22
2022-08-20T03:55:12.847Z,9.89
2022-08-20T03:56:10.273Z,9.67
2022-08-20T03:57:13.292Z,10.12
2022-08-20T03:58:10.811Z,10.34
2022-08-20T03:59:08.596Z,10.03
2022-08-20T04:00:06.733Z,9.54
2022-08-20T04:01:06.798Z,10.63
2022-08-20T04:02:05.401Z,11.05
2022-08-20T04:03:03.264Z,10.29
2022-08-20T04:04:01.154Z,10.06
2022-08-20T04:04:58.560Z,10.55
2022-08-20T04:05:55.978Z,10.66
2022-08-20T04:06:53.336Z,9.86
2022-08-20T04:07:50.908Z,9.75
2022-08-20T04:08:48.407Z,10.21
2022-08-20T04:09:45.796Z,10.32
2022-08-20T04:10:43.341Z,10.22
2022-08-20T04:11:41.054Z,9.94
2022-08-20T04:12:48.641Z,10.21
2022-08-20T04:13:50.494Z,10.20
2022-08-20T04:14:48.704Z,9.85
2022-08-20T04:15:48.438Z,9.77
2022-08-20T04:16:48.854Z,9.94
2022-08-20T04:17:50.160Z,9.56
2022-08-20T04:19:01.659Z,9.49
2022-08-20T04:20:02.449Z,9.63
2022-08-20T04:20:59.829Z,10.09
2022-08-20T04:21:57.155Z,9.73
2022-08-20T04:22:59.350Z,9.77
2022-08-20T04:23:57.970Z,10.38
2022-08-20T04:24:55.412Z,10.04
2022-08-20T04:25:52.840Z,10.43
2022-08-20T04:26:55.059Z,10.14
2022-08-20T04:27:52.493Z,9.80
2022-08-20T04:28:52.975Z,10.13
2022-08-20T04:29:50.411Z,10.38
2022-08-20T04:30:51.645Z,10.20
2022-08-20T04:31:49.364Z,10.19
2022-08-20T04:32:46.894Z,9.85
2022-08-20T04:33:44.341Z,10.24
2022-08-20T04:34:41.769Z,10.08
2022-08-20T04:35:39.172Z,10.30
2022-08-20T04:36:36.843Z,9.54
2022-08-20T04:37:34.285Z,9.95
2022-08-20T04:38:50.169Z,10.11
2022-08-20T04:40:08.773Z,10.61
2022-08-20T04:41:06.193Z,10.07
2022-08-20T04:42:03.614Z,10.06
2022-08-20T04:43:01.075Z,9.74
2022-08-20T04:43:58.486Z,9.24
2022-08-20T04:44:55.929Z,10.05
2022-08-20T04:45:55.608Z,9.99
2022-08-20T04:46:52.989Z,9.71
2022-08-20T04:47:50.965Z,10.32
2022-08-20T04:48:50.532Z,9.85
2022-08-20T04:49:48.088Z,9.61
2022-08-20T04:50:47.072Z,10.00
2022-08-20T04:51:44.459Z,9.70
2022-08-20T04:52:41.885Z,9.35
2022-08-20T04:53:40.238Z,9.76
2022-08-20T04:54:37.616Z,9.38
2022-08-20T04:55:38.597Z,9.41
2022-08-20T04:56:39.677Z,10.04
2022-08-20T04:57:38.436Z,9.54
2022-08-20T04:58:38.909Z,9.65
2022-08-20T04:59:36.436Z,9.75
2022-08-20T05:00:33.904Z,10.26
2022-08-20T05:01:32.132Z,10.20
2022-08-20T05:02:31.002Z,9.36
2022-08-20T05:03:28.991Z,9.57
2022-08-20T05:04:27.658Z,9.63
2022-08-20T05:05:25.225Z,9.96
2022-08-20T05:06:25.752Z,10.08
2022-08-20T05:07:23.196Z,9.37
2022-08-20T05:08:25.563Z,10.49
2022-08-20T05:09:22.914Z,10.18
2022-08-20T05:10:20.370Z,10.35
2022-08-20T05:11:33.208Z,9.99
2022-08-20T05:12:33.736Z,9.96
2022-08-20T05:13:31.162Z,10.80
2022-08-20T05:14:29.554Z,9.91
2022-08-20T05:15:26.977Z,9.52
2022-08-20T05:16:24.632Z,10.31
2022-08-20T05:17:23.949Z,10.01
2022-08-20T05:18:23.739Z,9.68
2022-08-20T05:19:21.144Z,10.11
2022-08-20T05:20:19.258Z,10.14
2022-08-20T05:21:16.660Z,9.65
2022-08-20T05:22:14.095Z,10.08
2022-08-20T05:23:12.786Z,9.88
2022-08-20T05:24:11.351Z,9.75
2022-08-20T05:25:09.519Z,9.90
2022-08-20T05:26:09.217Z,9.88
2022-08-20T05:27:06.560Z,9.88
2022-08-20T05:28:09.553Z,10.35
2022-08-20T05:29:07.633Z,9.89
2022-08-20T05:30:10.268Z,9.59
2022-08-20T05:31:10.908Z,9.96
2022-08-20T05:32:08.262Z,10.02
2022-08-20T05:33:06.730Z,9.81
2022-08-20T05:34:09.688Z,10.01
2022-08-20T05:35:09.673Z,10.10
2022-08-20T05:36:07.512Z,10.41
2022-08-20T05:37:04.986Z,9.84
2022-08-20T05:38:06.823Z,9.78
2022-08-20T05:39:04.255Z,9.46
2022-08-20T05:40:02.627Z,10.46
2022-08-20T05:41:00.154Z,9.81
2022-08-20T05:41:57.996Z,9.85
2022-08-20T05:42:55.367Z,9.68
2022-08-20T05:43:52.706Z,9.87
2022-08-20T05:44:50.121Z,10.25
2022-08-20T05:45:56.481Z,10.20
2022-08-20T05:46:54.101Z,9.65
2022-08-20T05:47:56.463Z,10.02
2022-08-20T05:48:54.084Z,10.37
2022-08-20T05:49:52.161Z,9.86
2022-08-20T05:50:50.777Z,9.49
2022-08-20T05:51:49.508Z,10.10
2022-08-20T05:52:46.945Z,9.65
2022-08-20T05:53:44.413Z,9.75
2022-08-20T05:54:41.840Z,10.15
2022-08-20T05:55:39.544Z,9.53
2022-08-20T05:56:37.402Z,10.32
2022-08-20T05:57:34.795Z,10.56
2022-08-20T05:58:32.948Z,10.63
2022-08-20T05:59:30.309Z,10.57
2022-08-20T06:00:28.078Z,10.15
2022-08-20T06:01:25.489Z,9.99
2022-08-20T06:02:41.422Z,10.63
2022-08-20T06:03:57.292Z,10.13
2022-08-20T06:04:56.100Z,10.38
2022-08-20T06:05:53.749Z,9.88
2022-08-20T06:06:52.835Z,10.24
2022-08-20T06:07:50.810Z,10.08
2022-08-20T06:08:52.390Z,9.88
2022-08-20T06:09:50.000Z,9.84
2022-08-20T06:10:47.446Z,10.20
2022-08-20T06:11:44.818Z,9.88
2022-08-20T06:12:43.323Z,10.30
2022-08-20T06:13:40.691Z,10.16
2022-08-20T06:14:38.248Z,9.48
2022-08-20T06:15:35.747Z,9.87
2022-08-20T06:16:33.333Z,10.01
2022-08-20T06:17:34.819Z,9.88
2022-08-20T06:18:37.070Z,10.47
2022-08-20T06:19:35.802Z,10.40
2022-08-20T06:20:34.624Z,9.80
2022-08-20T06:21:32.316Z,10.57
2022-08-20T06:22:29.819Z,10.25
2022-08-20T06:23:27.683Z,10.10
2022-08-20T06:24:45.062Z,10.15
2022-08-20T06:25:43.087Z,10.21
2022-08-20T06:26:40.485Z,10.23
2022-08-20T06:27:39.509Z,10.36
2022-08-20T06:28:37.010Z,10.47
2022-08-20T06:29:36.123Z,10.29
2022-08-20T06:30:33.664Z,10.10
2022-08-20T06:31:31.479Z,10.21
2022-08-20T06:32:32.691Z,10.13
2022-08-20T06:33:30.382Z,10.35
2022-08-20T06:34:28.377Z,10.27
2022-08-20T06:41:36.216Z,10.15
2022-08-20T06:42:35.019Z,11.04
2022-08-20T06:43:34.110Z,10.92
2022-08-20T06:44:32.274Z,11.06
2022-08-20T06:45:31.890Z,10.24
2022-08-20T06:46:29.334Z,10.11
2022-08-20T06:47:26.727Z,11.11
2022-08-20T06:48:24.600Z,10.69
2022-08-20T06:49:21.979Z,10.53
2022-08-20T06:50:21.631Z,11.24
2022-08-20T06:51:20.323Z,10.27
2022-08-20T06:52:18.235Z,10.28
2022-08-20T06:53:17.489Z,10.73
2022-08-20T06:54:14.837Z,10.21
2022-08-20T06:55:12.313Z,9.96
2022-08-20T06:56:09.773Z,10.47
2022-08-20T06:57:07.161Z,10.71
2022-08-20T06:58:06.321Z,11.11
2022-08-20T06:59:03.719Z,10.93
2022-08-20T07:00:01.246Z,10.50
2022-08-20T07:01:08.662Z,10.42
2022-08-20T07:02:07.946Z,10.61
2022-08-20T07:03:05.424Z,9.37
2022-08-20T07:04:02.969Z,10.13
2022-08-20T07:05:00.324Z,10.19
2022-08-20T07:05:58.079Z,10.51
2022-08-20T07:06:57.805Z,10.49
2022-08-20T07:07:56.490Z,10.43
2022-08-20T07:08:54.594Z,10.20
2022-08-20T07:09:58.721Z,10.29
2022-08-20T07:10:56.269Z,10.32
2022-08-20T07:11:53.735Z,10.06
2022-08-20T07:12:52.196Z,9.95
2022-08-20T07:13:49.806Z,10.29
2022-08-20T07:14:47.286Z,10.27
2022-08-20T07:15:45.179Z,10.54
2022-08-20T07:16:43.735Z,10.72
2022-08-20T07:17:41.903Z,10.34
2022-08-20T07:18:39.255Z,10.23
2022-08-20T07:19:37.582Z,10.07
2022-08-20T07:20:38.260Z,10.20
2022-08-20T07:21:35.885Z,10.46
2022-08-20T07:22:36.977Z,10.36
2022-08-20T07:23:34.555Z,10.10
2022-08-20T07:24:33.309Z,10.49
2022-08-20T07:25:33.741Z,10.27
2022-08-20T07:26:31.433Z,10.55
2022-08-20T07:27:28.828Z,10.40
2022-08-20T07:28:32.073Z,9.89
2022-08-20T07:29:49.557Z,9.82
2022-08-20T07:31:13.869Z,9.99
2022-08-20T07:32:31.731Z,10.00
2022-08-20T07:33:34.273Z,10.14
2022-08-20T07:34:31.637Z,10.40
2022-08-20T07:35:29.183Z,10.28
2022-08-20T07:36:27.068Z,10.12
2022-08-20T07:37:24.473Z,10.62
2022-08-20T07:38:25.004Z,11.08
2022-08-20T07:39:22.389Z,10.32
2022-08-20T07:40:25.846Z,10.54
2022-08-20T07:41:23.916Z,9.99
2022-08-20T07:42:21.285Z,9.81
2022-08-20T07:43:19.382Z,10.16
2022-08-20T07:44:17.506Z,10.46
2022-08-20T07:45:15.378Z,10.46
2022-08-20T07:46:13.900Z,9.69
2022-08-20T07:47:11.721Z,9.96
2022-08-20T07:48:11.694Z,10.22
2022-08-20T07:49:09.691Z,9.89
2022-08-20T07:50:09.014Z,9.76
2022-08-20T07:51:07.790Z,9.81
2022-08-20T07:52:05.723Z,9.74
2022-08-20T07:53:05.263Z,9.93
2022-08-20T07:54:02.969Z,9.97
2022-08-20T07:55:00.627Z,10.52
2022-08-20T07:55:59.366Z,10.24
2022-08-20T07:56:59.988Z,9.86
2022-08-20T07:57:58.675Z,9.68
2022-08-20T07:58:59.004Z,9.77
2022-08-20T08:00:00.206Z,10.31
2022-08-20T08:00:57.644Z,9.70
2022-08-20T08:01:56.211Z,9.62
2022-08-20T08:02:53.563Z,10.02
2022-08-20T08:03:51.026Z,10.39
2022-08-20T08:04:48.472Z,9.88
2022-08-20T08:05:48.087Z,10.10
2022-08-20T08:06:45.499Z,9.67
2022-08-20T08:07:43.255Z,9.92
2022-08-20T08:08:41.289Z,9.68
2022-08-20T08:09:38.826Z,10.20
2022-08-20T08:10:37.708Z,9.57
2022-08-20T08:11:37.964Z,9.05
2022-08-20T08:12:38.503Z,9.26
2022-08-20T08:13:38.849Z,9.77
2022-08-20T08:14:36.392Z,9.44
2022-08-20T08:15:39.221Z,9.55
2022-08-20T08:16:37.613Z,9.28
2022-08-20T08:17:35.204Z,9.31
2022-08-20T08:18:56.691Z,9.91
2022-08-20T08:19:54.689Z,9.67
2022-08-20T08:20:53.742Z,9.30
2022-08-20T08:21:51.244Z,9.54
2022-08-20T08:22:49.150Z,9.87
2022-08-20T08:23:46.988Z,10.17
2022-08-20T08:24:57.256Z,9.41
2022-08-20T08:25:55.120Z,9.60
2022-08-20T08:26:53.132Z,8.96
2022-08-20T08:27:50.486Z,9.09
2022-08-20T08:28:48.030Z,9.87
2022-08-20T08:29:45.827Z,9.37
2022-08-20T08:30:44.500Z,9.73
2022-08-20T08:31:42.374Z,10.27
2022-08-20T08:33:03.144Z,9.80
2022-08-20T08:34:01.130Z,9.43
2022-08-20T08:34:59.300Z,9.64
2022-08-20T08:36:03.446Z,9.92
2022-08-20T08:37:02.946Z,10.20
2022-08-20T08:38:02.239Z,9.45
2022-08-20T08:38:59.623Z,9.77
2022-08-20T08:39:57.031Z,10.01
2022-08-20T08:41:00.072Z,10.28
2022-08-20T08:41:59.098Z,10.09
2022-08-20T08:42:59.324Z,10.10
2022-08-20T08:44:04.655Z,10.05
2022-08-20T08:45:04.728Z,9.27
2022-08-20T08:46:06.212Z,9.91
2022-08-20T08:47:13.812Z,10.67
2022-08-20T08:48:18.423Z,10.03
2022-08-20T08:49:24.612Z,9.83
2022-08-20T08:50:53.611Z,10.23
2022-08-20T08:52:05.089Z,10.01
2022-08-20T08:53:05.747Z,10.41
2022-08-20T08:54:07.101Z,10.20
2022-08-20T08:55:07.193Z,10.33
2022-08-20T08:56:07.554Z,10.65
2022-08-20T08:57:07.641Z,10.30
2022-08-20T08:58:12.169Z,10.05
2022-08-20T08:59:14.228Z,10.66
2022-08-20T09:00:16.412Z,10.32
2022-08-20T09:01:54.990Z,9.88
2022-08-20T09:02:36.322Z,10.54
2022-08-20T09:03:36.976Z,10.26
2022-08-20T09:04:40.739Z,9.74
2022-08-20T09:05:43.443Z,9.80
2022-08-20T09:06:43.448Z,9.56
2022-08-20T09:07:42.474Z,9.42
2022-08-20T09:08:49.383Z,9.32
2022-08-20T09:09:47.218Z,9.35
2022-08-20T09:10:45.138Z,9.00
2022-08-20T09:11:47.453Z,9.61
2022-08-20T09:12:47.818Z,9.64
2022-08-20T09:13:45.341Z,9.28
2022-08-20T09:14:42.701Z,9.53
2022-08-20T09:15:40.180Z,9.60
2022-08-20T09:16:52.514Z,9.83
2022-08-20T09:17:50.938Z,9.06
2022-08-20T09:18:48.950Z,9.19
2022-08-20T09:19:46.333Z,9.70
2022-08-20T09:20:43.669Z,9.18
2022-08-20T09:21:41.036Z,9.49
2022-08-20T09:22:38.590Z,8.83
2022-08-20T09:23:36.478Z,9.31
2022-08-20T09:24:33.925Z,9.07
2022-08-20T09:25:31.398Z,9.33
2022-08-20T09:26:29.180Z,9.05
2022-08-20T09:27:26.984Z,9.12
2022-08-20T09:28:24.617Z,10.08
2022-08-20T09:29:29.796Z,9.74
2022-08-20T09:30:27.280Z,9.57
2022-08-20T09:31:24.768Z,9.68
2022-08-20T09:32:23.574Z,9.40
2022-08-20T09:33:21.008Z,9.81
2022-08-20T09:34:18.749Z,10.01
2022-08-20T09:35:16.223Z,9.15
2022-08-20T09:36:28.754Z,9.95
2022-08-20T09:37:36.709Z,9.87
2022-08-20T09:38:35.187Z,9.82
2022-08-20T09:39:32.564Z,9.59
2022-08-20T09:40:30.029Z,9.45
2022-08-20T09:41:27.451Z,9.54
2022-08-20T09:42:29.479Z,9.50
2022-08-20T09:43:26.999Z,9.37
2022-08-20T09:44:24.328Z,9.28
2022-08-20T09:45:21.839Z,9.54
2022-08-20T09:46:19.208Z,9.57
2022-08-20T09:47:17.437Z,9.36
2022-08-20T09:48:14.860Z,9.81
2022-08-20T09:49:12.230Z,9.40
2022-08-20T09:50:09.929Z,9.11
2022-08-20T09:51:07.606Z,8.99
2022-08-20T09:52:08.284Z,9.32
2022-08-20T09:53:06.537Z,9.28
2022-08-20T09:54:04.030Z,9.37
2022-08-20T09:55:03.291Z,9.31
2022-08-20T09:56:00.779Z,9.36
2022-08-20T09:56:59.106Z,9.39
2022-08-20T09:57:56.644Z,8.75
2022-08-20T09:58:57.239Z,9.25
2022-08-20T10:00:02.163Z,8.99
2022-08-20T10:01:04.391Z,8.97
2022-08-20T10:02:01.965Z,9.32
2022-08-20T10:03:00.895Z,9.09
2022-08-20T10:03:58.275Z,8.39
2022-08-20T10:04:55.896Z,8.67
2022-08-20T10:05:54.967Z,8.56
2022-08-20T10:06:52.570Z,9.76
2022-08-20T10:07:50.021Z,9.32
2022-08-20T10:08:49.141Z,9.58
2022-08-20T10:09:46.545Z,9.53
2022-08-20T10:10:43.902Z,9.21
2022-08-20T10:11:41.345Z,9.29
2022-08-20T10:12:38.855Z,9.26
2022-08-20T10:13:36.234Z,9.13
2022-08-20T10:14:33.666Z,9.18
2022-08-20T10:15:31.670Z,8.93
2022-08-20T10:16:29.026Z,9.44
2022-08-20T10:17:26.377Z,8.71
2022-08-20T10:18:23.715Z,9.34
2022-08-20T10:19:21.093Z,9.32
2022-08-20T10:20:21.730Z,8.68
2022-08-20T10:21:19.101Z,9.19
2022-08-20T10:22:16.474Z,8.59
2022-08-20T10:23:14.002Z,8.59
2022-08-20T10:24:11.413Z,8.49
2022-08-20T10:25:08.904Z,8.26
2022-08-20T10:26:10.001Z,8.79
2022-08-20T10:27:07.432Z,8.35
2022-08-20T10:28:05.858Z,8.01
2022-08-20T10:29:03.207Z,8.43
2022-08-20T10:30:01.246Z,8.47
2022-08-20T10:30:58.604Z,8.70
2022-08-20T10:31:57.123Z,8.82
2022-08-20T10:32:54.510Z,8.44
2022-08-20T10:33:51.955Z,8.43
2022-08-20T10:34:49.325Z,9.10
2022-08-20T10:35:46.686Z,8.89
2022-08-20T10:36:44.894Z,8.76
2022-08-20T10:37:42.306Z,8.84
2022-08-20T10:38:39.796Z,9.18
2022-08-20T10:39:37.260Z,8.87
2022-08-20T10:40:34.706Z,9.24
2022-08-20T10:41:32.125Z,8.53
2022-08-20T10:42:29.556Z,8.74
2022-08-20T10:43:28.129Z,9.86
2022-08-20T10:44:25.637Z,9.23
2022-08-20T10:45:25.290Z,9.64
2022-08-20T10:46:22.713Z,9.32
2022-08-20T10:47:20.084Z,9.60
2022-08-20T10:48:21.421Z,9.24
2022-08-20T10:49:19.134Z,8.56
2022-08-20T10:50:20.122Z,8.83
2022-08-20T10:51:17.719Z,9.20
2022-08-20T10:52:15.284Z,7.97
2022-08-20T10:53:13.149Z,9.57
2022-08-20T10:54:12.488Z,8.13
2022-08-20T10:55:10.204Z,8.56
2022-08-20T10:56:07.610Z,8.33
2022-08-20T10:57:05.103Z,7.88
2022-08-20T10:58:05.030Z,7.96
2022-08-20T10:59:03.730Z,7.89
2022-08-20T11:00:01.559Z,7.88
2022-08-20T11:01:00.240Z,7.83
2022-08-20T11:01:57.662Z,8.54
2022-08-20T11:02:55.443Z,8.07
2022-08-20T11:03:52.811Z,8.54
2022-08-20T11:04:51.194Z,8.32
2022-08-20T11:05:48.521Z,8.46
2022-08-20T11:06:45.935Z,8.38
2022-08-20T11:07:50.635Z,8.69
2022-08-20T11:08:53.810Z,8.19
2022-08-20T11:09:55.183Z,8.13
2022-08-20T11:10:53.191Z,8.13
2022-08-20T11:11:50.544Z,8.55
2022-08-20T11:12:48.563Z,8.00
2022-08-20T11:13:45.938Z,7.60
2022-08-20T11:14:43.681Z,7.85
2022-08-20T11:15:43.008Z,8.18
2022-08-20T11:16:40.355Z,8.11
2022-08-20T11:17:41.022Z,8.12
2022-08-20T11:18:38.427Z,8.02
2022-08-20T11:19:43.344Z,6.93
2022-08-20T11:20:40.776Z,7.15
2022-08-20T11:21:38.175Z,7.32
2022-08-20T11:22:35.589Z,7.73
2022-08-20T11:23:33.363Z,8.22
2022-08-20T11:24:31.162Z,8.27
2022-08-20T11:25:29.137Z,7.76
2022-08-20T11:26:26.622Z,8.96
2022-08-20T11:27:29.062Z,8.86
2022-08-20T11:28:31.071Z,8.94
2022-08-20T11:29:33.418Z,8.39
2022-08-20T11:30:33.428Z,8.20
2022-08-20T11:31:31.051Z,8.03
2022-08-20T11:32:28.558Z,8.00
2022-08-20T11:33:25.936Z,7.84
2022-08-20T11:34:23.325Z,8.53
2022-08-20T11:35:48.154Z,8.54
2022-08-20T11:36:41.092Z,8.32
2022-08-20T11:37:38.483Z,8.21
2022-08-20T11:38:35.845Z,8.36
2022-08-20T11:39:33.268Z,8.10
2022-08-20T11:40:31.536Z,8.10
2022-08-20T11:41:28.956Z,8.94
2022-08-20T11:42:26.357Z,8.53
2022-08-20T11:43:23.732Z,8.47
2022-08-20T11:44:21.734Z,8.25
2022-08-20T11:45:19.256Z,8.09
2022-08-20T11:46:16.643Z,7.97
2022-08-20T11:47:24.970Z,7.50
2022-08-20T11:48:22.851Z,7.32
2022-08-20T11:49:20.318Z,8.20
2022-08-20T11:50:20.506Z,7.66
2022-08-20T11:51:18.034Z,7.66
2022-08-20T11:52:15.451Z,7.48
2022-08-20T11:53:13.069Z,7.73
2022-08-20T11:54:12.334Z,7.34
2022-08-20T11:55:12.127Z,7.50
2022-08-20T11:56:09.869Z,7.56
2022-08-20T11:57:11.339Z,7.52
2022-08-20T11:58:09.750Z,7.93
2022-08-20T11:59:07.106Z,7.78
2022-08-20T12:00:11.229Z,7.76
2022-08-20T12:01:08.830Z,7.62
2022-08-20T12:02:11.670Z,7.95
2022-08-20T12:03:11.641Z,7.28
2022-08-20T12:04:09.330Z,7.01
2022-08-20T12:05:07.645Z,7.10
2022-08-20T12:06:05.110Z,7.41
2022-08-20T12:07:10.260Z,7.26
2022-08-20T12:08:09.203Z,7.82
2022-08-20T12:09:06.629Z,7.15
2022-08-20T12:10:09.921Z,7.33
2022-08-20T12:11:07.785Z,7.17
2022-08-20T12:12:05.478Z,7.13
2022-08-20T12:13:04.744Z,6.68
2022-08-20T12:14:02.400Z,7.03
2022-08-20T12:14:59.907Z,7.22
2022-08-20T12:15:57.350Z,6.91
2022-08-20T12:16:54.766Z,7.21
2022-08-20T12:17:52.305Z,7.23
2022-08-20T12:18:49.741Z,7.01
2022-08-20T12:19:47.776Z,7.48
2022-08-20T12:20:45.216Z,7.64
2022-08-20T12:21:42.659Z,7.66
2022-08-20T12:22:40.396Z,7.22
2022-08-20T12:23:37.749Z,7.75
2022-08-20T12:24:35.964Z,7.51
2022-08-20T12:25:33.690Z,7.81
2022-08-20T12:26:31.086Z,7.65
2022-08-20T12:27:30.598Z,8.43
2022-08-20T12:28:27.969Z,8.11
2022-08-20T12:29:26.187Z,8.07
2022-08-20T12:30:24.415Z,9.01
2022-08-20T12:31:22.032Z,8.17
2022-08-20T12:32:20.012Z,7.96
2022-08-20T12:33:17.622Z,8.47
2022-08-20T12:34:15.016Z,7.68
2022-08-20T12:35:16.785Z,7.95
2022-08-20T12:36:14.147Z,8.07
2022-08-20T12:37:15.971Z,8.09
2022-08-20T12:38:13.533Z,8.03
2022-08-20T12:39:11.177Z,7.47
2022-08-20T12:40:10.979Z,8.15
2022-08-20T12:41:08.575Z,7.53
2022-08-20T12:42:06.639Z,7.91
2022-08-20T12:43:04.111Z,8.01
2022-08-20T12:44:07.022Z,7.86
2022-08-20T12:45:11.270Z,7.95
2022-08-20T12:46:08.618Z,7.94
2022-08-20T12:47:19.771Z,8.05
2022-08-20T12:48:17.256Z,8.62
2022-08-20T12:49:14.641Z,8.81
2022-08-20T12:50:16.955Z,8.41
2022-08-20T12:51:14.400Z,9.62
2022-08-20T12:52:13.730Z,9.47
2022-08-20T12:53:11.266Z,8.94
2022-08-20T12:54:08.732Z,9.61
2022-08-20T12:55:07.922Z,9.15
2022-08-20T12:56:05.528Z,9.19
2022-08-20T12:57:03.114Z,9.46
2022-08-20T13:06:15.027Z,12.30
2022-08-20T13:07:13.527Z,12.53
2022-08-20T13:08:12.144Z,12.63
2022-08-20T13:09:09.526Z,12.29
2022-08-20T13:10:08.547Z,13.79
2022-08-20T13:11:06.138Z,14.19
2022-08-20T13:12:03.686Z,14.46
2022-08-20T13:13:04.111Z,15.58
2022-08-20T13:14:01.509Z,14.72
2022-08-20T13:14:58.969Z,14.31
2022-08-20T13:15:56.435Z,14.14
2022-08-20T13:16:58.229Z,14.52
2022-08-20T13:17:59.558Z,14.84
2022-08-20T13:18:56.982Z,14.46